Huvudsida
METAR-TAF:

METAR-TAF

Flygplatser :

Sumburgh Airport

Sumburgh, Shetlandsöarna, Skottland

latitud: 59-53N, longitud: 001-18W, höjd: 5 m

Aktuellt väderrapport

Denna rapport gjordes för 34 minuter sedan, klockan 19:50 UTC
Vind 6 kt från ost/nordost
Temperatur 11°C
Fuktighet 94%
Tryck 1027 hPa
Sikt 10 km eller mer

METAR: EGPB 291950Z AUTO 07006KT 9999 NCD 11/10 Q1027

Tid: 21:24 (20:24 UTC)

Väderprognos

Denna rapport gjordes för 6 timmar och 29 minuter sedan, klockan 13:55 UTC
Prognos gäller från 29 kl. 15 UTC till 29 kl. 24 UTC
Vind 9 kt från ost
Sikt 10 km eller mer
Spridda moln på en höjd av 400 ft
Temporärt
från 29 kl. 15 UTC till 29 kl. 24 UTC
Brutna moln på en höjd av 400 ft
Sannolikhet 30%
från 29 kl. 15 UTC till 29 kl. 24 UTC
Sikt: 0300 m
dimma

TAF: EGPB 291355Z 2915/2924 10009KT 9999 SCT004 TEMPO 2915/2924 BKN004 PROB30 2915/2924 0300 FG VV///

Aktuella väderrapporter och prognoser från 4000 flygplatser (METAR- och TAF-rapporter).

De tillgängliga stationerna syns som gula och röda prickar på kartan.

För musen över prickarna för att se namnen på stationerna.

Klicka sedan för att få väderrapporter och prognoser.

För att ändra kartan: Klicka på de gröna knapparna med ett svart kors på för att zooma in; den gröna knappen med ett streck på för att zooma ut; eller på de gröna pilarna för angränsande kartor.


METAR-TAF: